Terminal Aerodrome Forecast
Issued by NWS

Home | Current Version | Previous Version | Graphics & Text | Print | Product List | Glossary On
Versions: 1 2 3 4 5 6 7 8 9 10 11 12 13 14
466
FTUS42 KMHX 072320
TAFISO
TAF
KISO 072320Z 0800/0824 34015G25KT 6SM -RAPL SCT030 OVC060
      TEMPO 0800/0801 4SM -RAPL BKN015
     FM080400 32011G20KT P6SM BKN060
     FM080800 30007KT P6SM SCT090
      AMD LTD TO CLD VIS AND WIND=

USA.gov is the U.S. government's official web portal to all federal, state and local government web resources and services.